sensor_id;sensor_type;location;lat;lon;timestamp;pressure;altitude;pressure_sealevel;temperature;humidity
43161;BME280;40968;52.342;5.528;2023-05-01T00:01:59;101835.13;;;14.90;49.22
43161;BME280;40968;52.342;5.528;2023-05-01T00:04:26;101857.00;;;14.99;49.40
43161;BME280;40968;52.342;5.528;2023-05-01T00:06:54;101624.88;;;13.58;49.32
43161;BME280;40968;52.342;5.528;2023-05-01T00:09:21;101803.34;;;14.58;49.28
43161;BME280;40968;52.342;5.528;2023-05-01T00:11:48;101883.50;;;15.05;49.55
43161;BME280;40968;52.342;5.528;2023-05-01T00:14:15;101874.91;;;15.00;49.46
43161;BME280;40968;52.342;5.528;2023-05-01T00:16:41;101878.19;;;14.92;50.09
43161;BME280;40968;52.342;5.528;2023-05-01T00:19:08;101867.88;;;14.86;50.32
43161;BME280;40968;52.342;5.528;2023-05-01T00:21:36;101799.34;;;14.40;50.29
43161;BME280;40968;52.342;5.528;2023-05-01T00:24:04;101828.84;;;14.54;50.61
43161;BME280;40968;52.342;5.528;2023-05-01T00:26:31;101753.34;;;14.06;50.14
43161;BME280;40968;52.342;5.528;2023-05-01T00:28:58;101577.66;;;13.04;51.00
43161;BME280;40968;52.342;5.528;2023-05-01T00:31:24;101724.72;;;13.92;50.85
43161;BME280;40968;52.342;5.528;2023-05-01T00:33:51;101823.25;;;14.45;51.52
43161;BME280;40968;52.342;5.528;2023-05-01T00:36:18;101820.06;;;14.39;50.79
43161;BME280;40968;52.342;5.528;2023-05-01T00:38:44;101779.84;;;14.12;51.41
43161;BME280;40968;52.342;5.528;2023-05-01T00:41:13;101841.06;;;14.47;51.46
43161;BME280;40968;52.342;5.528;2023-05-01T00:43:39;101840.53;;;14.42;51.52
43161;BME280;40968;52.342;5.528;2023-05-01T00:46:06;101747.38;;;13.89;51.66
43161;BME280;40968;52.342;5.528;2023-05-01T00:48:34;101830.00;;;14.39;51.57
43161;BME280;40968;52.342;5.528;2023-05-01T00:51:03;101673.63;;;13.42;51.46
43161;BME280;40968;52.342;5.528;2023-05-01T00:53:30;101743.44;;;13.82;51.90
43161;BME280;40968;52.342;5.528;2023-05-01T00:55:58;101771.91;;;13.98;51.72
43161;BME280;40968;52.342;5.528;2023-05-01T00:58:28;101817.66;;;14.23;51.90
43161;BME280;40968;52.342;5.528;2023-05-01T01:00:54;101758.03;;;13.91;52.09
43161;BME280;40968;52.342;5.528;2023-05-01T01:03:21;101733.22;;;13.74;52.67
43161;BME280;40968;52.342;5.528;2023-05-01T01:05:52;101665.66;;;13.27;52.61
43161;BME280;40968;52.342;5.528;2023-05-01T01:08:25;101475.78;;;12.12;52.08
43161;BME280;40968;52.342;5.528;2023-05-01T01:10:59;101590.44;;;12.76;52.36
43161;BME280;40968;52.342;5.528;2023-05-01T01:13:31;101798.97;;;13.96;52.98
43161;BME280;40968;52.342;5.528;2023-05-01T01:16:08;101799.34;;;13.91;52.48
43161;BME280;40968;52.342;5.528;2023-05-01T01:18:41;101754.03;;;13.59;52.72
43161;BME280;40968;52.342;5.528;2023-05-01T01:21:14;101779.53;;;13.80;53.37
43161;BME280;40968;52.342;5.528;2023-05-01T01:24:02;101782.56;;;13.75;53.26
43161;BME280;40968;52.342;5.528;2023-05-01T01:26:44;101628.59;;;12.81;52.98
43161;BME280;40968;52.342;5.528;2023-05-01T01:29:38;101775.25;;;13.64;53.45
43161;BME280;40968;52.342;5.528;2023-05-01T01:32:11;101677.97;;;13.06;53.38
43161;BME280;40968;52.342;5.528;2023-05-01T01:34:48;101764.94;;;13.58;53.38
43161;BME280;40968;52.342;5.528;2023-05-01T01:37:20;101723.47;;;13.35;53.40
43161;BME280;40968;52.342;5.528;2023-05-01T01:39:52;101642.03;;;12.81;52.92
43161;BME280;40968;52.342;5.528;2023-05-01T01:42:21;101671.56;;;12.96;53.06
43161;BME280;40968;52.342;5.528;2023-05-01T01:44:51;101745.88;;;13.35;53.12
43161;BME280;40968;52.342;5.528;2023-05-01T01:47:21;101712.75;;;13.09;53.04
43161;BME280;40968;52.342;5.528;2023-05-01T01:49:54;101746.44;;;13.27;53.20
43161;BME280;40968;52.342;5.528;2023-05-01T01:52:22;101645.72;;;12.67;53.26
43161;BME280;40968;52.342;5.528;2023-05-01T01:54:53;101737.28;;;13.17;53.52
43161;BME280;40968;52.342;5.528;2023-05-01T01:57:23;101733.09;;;13.13;53.64
43161;BME280;40968;52.342;5.528;2023-05-01T01:59:52;101625.09;;;12.42;53.32
43161;BME280;40968;52.342;5.528;2023-05-01T02:02:21;101729.44;;;13.01;53.42
43161;BME280;40968;52.342;5.528;2023-05-01T02:04:49;101680.34;;;12.72;53.84
43161;BME280;40968;52.342;5.528;2023-05-01T02:07:18;101509.78;;;11.73;53.86
43161;BME280;40968;52.342;5.528;2023-05-01T02:09:47;101723.19;;;13.01;54.38
43161;BME280;40968;52.342;5.528;2023-05-01T02:12:17;101724.16;;;13.00;54.44
43161;BME280;40968;52.342;5.528;2023-05-01T02:14:45;101667.91;;;12.71;54.47
43161;BME280;40968;52.342;5.528;2023-05-01T02:17:13;101709.84;;;12.99;55.27
43161;BME280;40968;52.342;5.528;2023-05-01T02:19:42;101678.00;;;12.80;54.54
43161;BME280;40968;52.342;5.528;2023-05-01T02:22:10;101648.19;;;12.57;54.57
43161;BME280;40968;52.342;5.528;2023-05-01T02:24:41;101701.16;;;12.96;55.00
43161;BME280;40968;52.342;5.528;2023-05-01T02:27:11;101647.78;;;12.64;55.16
43161;BME280;40968;52.342;5.528;2023-05-01T02:29:39;101696.72;;;12.94;54.67
43161;BME280;40968;52.342;5.528;2023-05-01T02:32:05;101655.19;;;12.73;54.58
43161;BME280;40968;52.342;5.528;2023-05-01T02:34:33;101689.72;;;12.92;55.45
43161;BME280;40968;52.342;5.528;2023-05-01T02:37:01;101656.91;;;12.74;54.91
43161;BME280;40968;52.342;5.528;2023-05-01T02:39:27;101565.72;;;12.19;56.12
43161;BME280;40968;52.342;5.528;2023-05-01T02:41:57;101681.00;;;12.88;55.92
43161;BME280;40968;52.342;5.528;2023-05-01T03:02:17;101667.78;;;12.59;57.15
43161;BME280;40968;52.342;5.528;2023-05-01T03:04:43;101654.34;;;12.59;57.34
43161;BME280;40968;52.342;5.528;2023-05-01T03:07:10;101661.63;;;12.57;56.64
43161;BME280;40968;52.342;5.528;2023-05-01T03:09:36;101596.34;;;12.17;56.25
43161;BME280;40968;52.342;5.528;2023-05-01T03:12:03;101579.59;;;12.13;56.70
43161;BME280;40968;52.342;5.528;2023-05-01T03:14:30;101642.50;;;12.49;56.03
43161;BME280;40968;52.342;5.528;2023-05-01T03:16:57;101559.16;;;11.98;56.77
43161;BME280;40968;52.342;5.528;2023-05-01T03:19:25;101582.19;;;12.15;56.83
43161;BME280;40968;52.342;5.528;2023-05-01T03:21:52;101632.94;;;12.45;57.00
43161;BME280;40968;52.342;5.528;2023-05-01T03:24:18;101544.19;;;11.93;56.78
43161;BME280;40968;52.342;5.528;2023-05-01T03:26:45;101623.38;;;12.41;56.63
43161;BME280;40968;52.342;5.528;2023-05-01T03:29:11;101520.81;;;11.68;56.29
43161;BME280;40968;52.342;5.528;2023-05-01T03:31:38;101587.16;;;11.93;56.75
43161;BME280;40968;52.342;5.528;2023-05-01T03:34:05;101612.16;;;12.21;56.88
43161;BME280;40968;52.342;5.528;2023-05-01T03:36:33;101601.72;;;12.17;56.85
43161;BME280;40968;52.342;5.528;2023-05-01T03:38:59;101570.88;;;11.97;57.78
43161;BME280;40968;52.342;5.528;2023-05-01T03:41:26;101529.63;;;11.70;57.99
43161;BME280;40968;52.342;5.528;2023-05-01T03:43:53;101531.88;;;11.64;57.70
43161;BME280;40968;52.342;5.528;2023-05-01T03:46:19;101606.78;;;12.08;57.17
43161;BME280;40968;52.342;5.528;2023-05-01T03:48:46;101539.00;;;11.65;57.41
43161;BME280;40968;52.342;5.528;2023-05-01T03:51:12;101518.72;;;11.46;57.17
43161;BME280;40968;52.342;5.528;2023-05-01T03:53:42;101593.25;;;11.83;57.14
43161;BME280;40968;52.342;5.528;2023-05-01T03:56:09;101556.78;;;11.66;57.39
43161;BME280;40968;52.342;5.528;2023-05-01T03:58:35;101614.69;;;11.97;57.81
43161;BME280;40968;52.342;5.528;2023-05-01T04:01:02;101551.63;;;11.63;57.49
43161;BME280;40968;52.342;5.528;2023-05-01T04:03:29;101600.59;;;11.93;58.00
43161;BME280;40968;52.342;5.528;2023-05-01T04:05:55;101605.19;;;11.91;57.82
43161;BME280;40968;52.342;5.528;2023-05-01T04:08:22;101358.31;;;10.43;58.01
43161;BME280;40968;52.342;5.528;2023-05-01T04:10:50;101523.25;;;11.45;57.33
43161;BME280;40968;52.342;5.528;2023-05-01T04:13:17;101505.38;;;11.32;57.47
43161;BME280;40968;52.342;5.528;2023-05-01T04:15:43;101538.28;;;11.48;57.30
43161;BME280;40968;52.342;5.528;2023-05-01T04:18:11;101451.53;;;10.80;58.10
43161;BME280;40968;52.342;5.528;2023-05-01T04:20:37;101586.88;;;11.71;58.01
43161;BME280;40968;52.342;5.528;2023-05-01T04:23:05;101592.34;;;11.69;57.43
43161;BME280;40968;52.342;5.528;2023-05-01T04:25:33;101526.09;;;11.30;58.18
43161;BME280;40968;52.342;5.528;2023-05-01T04:28:01;101510.06;;;11.15;58.11
43161;BME280;40968;52.342;5.528;2023-05-01T04:30:29;101558.81;;;11.49;58.24
43161;BME280;40968;52.342;5.528;2023-05-01T04:32:55;101593.31;;;11.68;58.22
43161;BME280;40968;52.342;5.528;2023-05-01T04:35:22;101585.38;;;11.67;58.22
43161;BME280;40968;52.342;5.528;2023-05-01T04:37:49;101483.28;;;11.01;57.78
43161;BME280;40968;52.342;5.528;2023-05-01T04:40:16;101487.88;;;10.99;58.42
43161;BME280;40968;52.342;5.528;2023-05-01T04:42:43;101594.59;;;11.63;58.24
43161;BME280;40968;52.342;5.528;2023-05-01T04:45:11;101592.88;;;11.61;58.12
43161;BME280;40968;52.342;5.528;2023-05-01T04:47:38;101492.50;;;10.97;58.43
43161;BME280;40968;52.342;5.528;2023-05-01T04:50:05;101543.16;;;11.28;57.98
43161;BME280;40968;52.342;5.528;2023-05-01T04:52:32;101565.34;;;11.45;57.86
43161;BME280;40968;52.342;5.528;2023-05-01T04:55:00;101524.59;;;11.25;57.78
43161;BME280;40968;52.342;5.528;2023-05-01T04:57:26;101538.75;;;11.27;58.04
43161;BME280;40968;52.342;5.528;2023-05-01T04:59:53;101591.91;;;11.63;58.25
43161;BME280;40968;52.342;5.528;2023-05-01T05:02:21;101379.56;;;10.32;57.40
43161;BME280;40968;52.342;5.528;2023-05-01T05:04:47;101587.72;;;11.58;57.60
43161;BME280;40968;52.342;5.528;2023-05-01T05:07:14;101562.94;;;11.40;57.49
43161;BME280;40968;52.342;5.528;2023-05-01T05:09:41;101591.34;;;11.57;57.98
43161;BME280;40968;52.342;5.528;2023-05-01T05:12:08;101591.34;;;11.57;57.06
43161;BME280;40968;52.342;5.528;2023-05-01T05:14:34;101494.13;;;10.99;57.75
43161;BME280;40968;52.342;5.528;2023-05-01T05:17:01;101587.72;;;11.58;57.75
43161;BME280;40968;52.342;5.528;2023-05-01T05:19:29;101296.25;;;9.81;58.11
43161;BME280;40968;52.342;5.528;2023-05-01T05:21:55;101590.00;;;11.65;58.23
43161;BME280;40968;52.342;5.528;2023-05-01T05:24:22;101592.47;;;11.68;58.55
43161;BME280;40968;52.342;5.528;2023-05-01T05:26:48;101510.41;;;11.23;58.55
43161;BME280;40968;52.342;5.528;2023-05-01T05:29:15;101514.59;;;11.27;58.49
43161;BME280;40968;52.342;5.528;2023-05-01T05:31:42;101514.41;;;11.31;57.91
43161;BME280;40968;52.342;5.528;2023-05-01T05:34:09;101448.25;;;10.89;57.71
43161;BME280;40968;52.342;5.528;2023-05-01T05:36:37;101585.63;;;11.76;58.35
43161;BME280;40968;52.342;5.528;2023-05-01T05:39:03;101507.50;;;11.26;58.18
43161;BME280;40968;52.342;5.528;2023-05-01T05:41:30;101580.25;;;11.76;57.69
43161;BME280;40968;52.342;5.528;2023-05-01T05:43:57;101550.53;;;11.52;57.66
43161;BME280;40968;52.342;5.528;2023-05-01T05:46:23;101578.81;;;11.71;58.28
43161;BME280;40968;52.342;5.528;2023-05-01T05:48:50;101545.59;;;11.59;58.61
43161;BME280;40968;52.342;5.528;2023-05-01T05:51:17;101574.56;;;11.81;58.24
43161;BME280;40968;52.342;5.528;2023-05-01T05:53:45;101531.00;;;11.50;58.85
43161;BME280;40968;52.342;5.528;2023-05-01T05:56:11;101536.50;;;11.61;58.49
43161;BME280;40968;52.342;5.528;2023-05-01T05:58:38;101527.78;;;11.58;58.56
43161;BME280;40968;52.342;5.528;2023-05-01T06:01:04;101537.66;;;11.57;57.87
43161;BME280;40968;52.342;5.528;2023-05-01T06:03:33;101547.91;;;11.78;57.95
43161;BME280;40968;52.342;5.528;2023-05-01T06:06:00;101454.28;;;11.20;57.70
43161;BME280;40968;52.342;5.528;2023-05-01T06:08:27;101542.00;;;11.73;58.39
43161;BME280;40968;52.342;5.528;2023-05-01T06:10:55;101564.38;;;11.86;57.74
43161;BME280;40968;52.342;5.528;2023-05-01T06:13:23;101475.34;;;11.39;58.06
43161;BME280;40968;52.342;5.528;2023-05-01T06:15:50;101555.69;;;11.96;58.22
43161;BME280;40968;52.342;5.528;2023-05-01T06:18:16;101556.25;;;12.01;58.19
43161;BME280;40968;52.342;5.528;2023-05-01T06:20:43;101491.06;;;11.58;58.38
43161;BME280;40968;52.342;5.528;2023-05-01T06:23:09;101554.88;;;12.08;58.46
43161;BME280;40968;52.342;5.528;2023-05-01T06:25:38;101426.16;;;11.26;57.75
43161;BME280;40968;52.342;5.528;2023-05-01T06:28:06;101443.91;;;11.41;57.23
43161;BME280;40968;52.342;5.528;2023-05-01T06:30:32;101570.66;;;12.13;57.72
43161;BME280;40968;52.342;5.528;2023-05-01T06:32:59;101309.06;;;10.59;57.89
43161;BME280;40968;52.342;5.528;2023-05-01T06:35:26;101521.16;;;11.89;57.92
43161;BME280;40968;52.342;5.528;2023-05-01T06:37:52;101565.94;;;12.16;58.17
43161;BME280;40968;52.342;5.528;2023-05-01T06:40:20;101521.66;;;11.96;58.21
43161;BME280;40968;52.342;5.528;2023-05-01T06:42:46;101486.16;;;11.78;58.26
43161;BME280;40968;52.342;5.528;2023-05-01T06:45:14;101561.41;;;12.30;58.30
43161;BME280;40968;52.342;5.528;2023-05-01T06:47:41;101507.66;;;12.04;58.21
43161;BME280;40968;52.342;5.528;2023-05-01T06:50:09;101524.66;;;12.17;57.89
43161;BME280;40968;52.342;5.528;2023-05-01T06:52:35;101447.50;;;11.81;56.94
43161;BME280;40968;52.342;5.528;2023-05-01T06:55:02;101505.09;;;12.15;57.00
43161;BME280;40968;52.342;5.528;2023-05-01T06:57:29;101562.50;;;12.53;56.50
43161;BME280;40968;52.342;5.528;2023-05-01T06:59:55;101433.09;;;11.82;57.78
43161;BME280;40968;52.342;5.528;2023-05-01T07:02:23;101504.13;;;12.29;57.01
43161;BME280;40968;52.342;5.528;2023-05-01T07:04:51;101565.72;;;12.58;56.99
43161;BME280;40968;52.342;5.528;2023-05-01T07:07:18;101354.69;;;11.38;57.43
43161;BME280;40968;52.342;5.528;2023-05-01T07:09:44;101553.41;;;12.67;57.89
43161;BME280;40968;52.342;5.528;2023-05-01T07:12:11;101516.91;;;12.51;57.32
43161;BME280;40968;52.342;5.528;2023-05-01T07:14:38;101532.97;;;12.64;57.34
43161;BME280;40968;52.342;5.528;2023-05-01T07:17:05;101556.41;;;12.88;57.30
43161;BME280;40968;52.342;5.528;2023-05-01T07:19:34;101564.13;;;12.92;57.51
43161;BME280;40968;52.342;5.528;2023-05-01T07:22:01;101517.69;;;12.77;58.04
43161;BME280;40968;52.342;5.528;2023-05-01T07:24:29;101506.06;;;12.77;57.34
43161;BME280;40968;52.342;5.528;2023-05-01T07:26:55;101412.63;;;12.31;57.24
43161;BME280;40968;52.342;5.528;2023-05-01T07:29:22;101384.06;;;12.17;57.07
43161;BME280;40968;52.342;5.528;2023-05-01T07:31:48;101545.94;;;13.20;56.10
43161;BME280;40968;52.342;5.528;2023-05-01T07:34:15;101504.75;;;12.96;56.19
43161;BME280;40968;52.342;5.528;2023-05-01T07:36:45;101491.72;;;12.89;56.13
43161;BME280;40968;52.342;5.528;2023-05-01T07:39:11;101546.47;;;13.25;55.94
43161;BME280;40968;52.342;5.528;2023-05-01T07:41:39;101502.09;;;13.07;55.89
43161;BME280;40968;52.342;5.528;2023-05-01T07:44:05;101511.66;;;13.11;55.84
43161;BME280;40968;52.342;5.528;2023-05-01T07:46:32;101539.44;;;13.36;55.73
43161;BME280;40968;52.342;5.528;2023-05-01T07:48:59;101466.19;;;12.95;55.41
43161;BME280;40968;52.342;5.528;2023-05-01T07:51:26;101534.59;;;13.41;55.78
43161;BME280;40968;52.342;5.528;2023-05-01T07:53:54;101454.97;;;13.01;55.20
43161;BME280;40968;52.342;5.528;2023-05-01T07:56:20;101448.97;;;12.98;54.96
43161;BME280;40968;52.342;5.528;2023-05-01T07:58:47;101534.13;;;13.47;54.99
43161;BME280;40968;52.342;5.528;2023-05-01T08:01:13;101535.63;;;13.51;55.34
43161;BME280;40968;52.342;5.528;2023-05-01T08:03:40;101495.13;;;13.29;55.32
43161;BME280;40968;52.342;5.528;2023-05-01T08:06:06;101534.44;;;13.67;56.01
43161;BME280;40968;52.342;5.528;2023-05-01T08:08:33;101542.66;;;13.76;55.73
43161;BME280;40968;52.342;5.528;2023-05-01T08:11:01;101553.84;;;13.83;55.78
43161;BME280;40968;52.342;5.528;2023-05-01T08:13:28;101511.19;;;13.66;55.35
43161;BME280;40968;52.342;5.528;2023-05-01T08:15:54;101470.47;;;13.46;55.42
43161;BME280;40968;52.342;5.528;2023-05-01T08:18:23;101502.00;;;13.68;55.23
43161;BME280;40968;52.342;5.528;2023-05-01T08:20:49;101429.50;;;13.30;55.49
43161;BME280;40968;52.342;5.528;2023-05-01T08:23:16;101439.91;;;13.47;55.19
43161;BME280;40968;52.342;5.528;2023-05-01T08:25:43;101412.16;;;13.34;55.07
43161;BME280;40968;52.342;5.528;2023-05-01T08:28:13;101360.94;;;13.11;54.65
43161;BME280;40968;52.342;5.528;2023-05-01T08:30:40;101279.13;;;12.67;54.54
43161;BME280;40968;52.342;5.528;2023-05-01T08:33:06;101499.50;;;14.12;54.11
43161;BME280;40968;52.342;5.528;2023-05-01T08:35:33;101286.53;;;12.87;53.23
43161;BME280;40968;52.342;5.528;2023-05-01T08:37:59;101513.16;;;14.33;53.35
43161;BME280;40968;52.342;5.528;2023-05-01T08:40:31;101368.31;;;13.56;52.74
43161;BME280;40968;52.342;5.528;2023-05-01T08:42:59;101287.06;;;13.04;52.69
43161;BME280;40968;52.342;5.528;2023-05-01T08:45:28;101404.94;;;13.81;51.70
43161;BME280;40968;52.342;5.528;2023-05-01T08:48:01;101545.41;;;14.69;51.02
43161;BME280;40968;52.342;5.528;2023-05-01T08:50:30;101552.25;;;14.73;51.49
43161;BME280;40968;52.342;5.528;2023-05-01T08:52:59;101469.13;;;14.33;51.62
43161;BME280;40968;52.342;5.528;2023-05-01T08:55:29;101492.41;;;14.56;51.12
43161;BME280;40968;52.342;5.528;2023-05-01T08:57:56;101550.75;;;14.91;49.75
43161;BME280;40968;52.342;5.528;2023-05-01T09:00:24;101537.75;;;14.85;50.06
43161;BME280;40968;52.342;5.528;2023-05-01T09:02:53;101366.72;;;13.99;49.37
43161;BME280;40968;52.342;5.528;2023-05-01T09:05:20;101510.41;;;14.90;48.90
43161;BME280;40968;52.342;5.528;2023-05-01T09:07:47;101445.47;;;14.48;48.77
43161;BME280;40968;52.342;5.528;2023-05-01T09:10:15;101511.25;;;14.90;48.93
43161;BME280;40968;52.342;5.528;2023-05-01T09:12:43;101328.88;;;13.77;49.26
43161;BME280;40968;52.342;5.528;2023-05-01T09:15:12;101520.19;;;15.02;49.81
43161;BME280;40968;52.342;5.528;2023-05-01T09:17:41;101441.63;;;14.62;49.33
43161;BME280;40968;52.342;5.528;2023-05-01T09:20:10;101332.44;;;13.89;50.50
43161;BME280;40968;52.342;5.528;2023-05-01T09:22:36;101370.13;;;14.23;50.25
43161;BME280;40968;52.342;5.528;2023-05-01T09:25:04;101550.13;;;15.43;50.23
43161;BME280;40968;52.342;5.528;2023-05-01T09:27:33;101527.84;;;15.30;49.31
43161;BME280;40968;52.342;5.528;2023-05-01T09:30:00;101490.47;;;15.14;49.99
43161;BME280;40968;52.342;5.528;2023-05-01T09:32:27;101498.69;;;15.12;49.66
43161;BME280;40968;52.342;5.528;2023-05-01T09:34:55;101515.31;;;15.29;50.35
43161;BME280;40968;52.342;5.528;2023-05-01T09:37:30;101503.19;;;15.23;50.31
43161;BME280;40968;52.342;5.528;2023-05-01T09:40:05;101556.91;;;15.70;50.50
43161;BME280;40968;52.342;5.528;2023-05-01T09:42:33;101456.56;;;15.21;50.46
43161;BME280;40968;52.342;5.528;2023-05-01T09:45:01;101539.91;;;15.79;49.14
43161;BME280;40968;52.342;5.528;2023-05-01T09:47:28;101558.25;;;15.97;49.99
43161;BME280;40968;52.342;5.528;2023-05-01T09:49:56;101563.34;;;16.11;50.00
43161;BME280;40968;52.342;5.528;2023-05-01T09:52:25;101560.09;;;16.17;49.16
43161;BME280;40968;52.342;5.528;2023-05-01T09:55:10;101562.41;;;16.22;48.13
43161;BME280;40968;52.342;5.528;2023-05-01T09:57:38;101308.94;;;14.79;48.89
43161;BME280;40968;52.342;5.528;2023-05-01T10:00:07;101561.56;;;16.52;48.77
43161;BME280;40968;52.342;5.528;2023-05-01T10:02:35;101470.25;;;16.04;47.72
43161;BME280;40968;52.342;5.528;2023-05-01T10:05:02;101555.97;;;16.75;46.88
43161;BME280;40968;52.342;5.528;2023-05-01T10:07:28;101557.31;;;16.90;47.17
43161;BME280;40968;52.342;5.528;2023-05-01T10:09:56;101486.03;;;16.70;47.92
43161;BME280;40968;52.342;5.528;2023-05-01T10:12:25;101420.75;;;16.54;47.61
43161;BME280;40968;52.342;5.528;2023-05-01T10:14:52;101334.25;;;16.23;47.37
43161;BME280;40968;52.342;5.528;2023-05-01T10:17:20;101443.34;;;16.94;45.96
43161;BME280;40968;52.342;5.528;2023-05-01T10:19:47;101563.41;;;17.63;46.42
43161;BME280;40968;52.342;5.528;2023-05-01T10:22:14;101484.56;;;17.27;46.90
43161;BME280;40968;52.342;5.528;2023-05-01T10:24:42;101546.28;;;17.72;46.85
43161;BME280;40968;52.342;5.528;2023-05-01T10:27:11;101553.41;;;17.63;44.00
43161;BME280;40968;52.342;5.528;2023-05-01T10:29:40;101540.59;;;17.55;45.34
43161;BME280;40968;52.342;5.528;2023-05-01T10:32:08;101522.91;;;17.51;46.10
43161;BME280;40968;52.342;5.528;2023-05-01T10:34:38;101461.00;;;17.17;45.37
43161;BME280;40968;52.342;5.528;2023-05-01T10:37:11;101508.94;;;17.56;46.11
43161;BME280;40968;52.342;5.528;2023-05-01T10:39:39;101549.72;;;17.94;46.22
43161;BME280;40968;52.342;5.528;2023-05-01T10:42:06;101478.28;;;17.55;46.04
43161;BME280;40968;52.342;5.528;2023-05-01T10:44:35;101484.09;;;17.70;45.64
43161;BME280;40968;52.342;5.528;2023-05-01T10:50:09;101424.19;;;17.64;44.06
43161;BME280;40968;52.342;5.528;2023-05-01T10:55:41;101559.28;;;18.83;44.43
43161;BME280;40968;52.342;5.528;2023-05-01T10:58:09;101529.41;;;18.83;43.63
43161;BME280;40968;52.342;5.528;2023-05-01T11:00:36;101559.75;;;19.06;43.08
43161;BME280;40968;52.342;5.528;2023-05-01T11:03:33;101555.34;;;19.05;42.72
43161;BME280;40968;52.342;5.528;2023-05-01T11:06:07;101486.88;;;18.73;43.95
43161;BME280;40968;52.342;5.528;2023-05-01T11:08:35;101489.03;;;18.98;43.52
43161;BME280;40968;52.342;5.528;2023-05-01T11:14:13;101456.91;;;19.11;40.45
43161;BME280;40968;52.342;5.528;2023-05-01T11:16:41;101394.31;;;18.85;40.81
43161;BME280;40968;52.342;5.528;2023-05-01T11:19:09;101510.25;;;19.66;40.87
43161;BME280;40968;52.342;5.528;2023-05-01T11:21:38;101552.09;;;19.92;41.45
43161;BME280;40968;52.342;5.528;2023-05-01T11:24:06;101240.47;;;18.13;40.82
43161;BME280;40968;52.342;5.528;2023-05-01T11:26:37;101540.34;;;19.91;41.28
43161;BME280;40968;52.342;5.528;2023-05-01T11:29:05;101567.47;;;20.01;40.50
43161;BME280;40968;52.342;5.528;2023-05-01T11:31:32;101525.06;;;19.72;39.43
43161;BME280;40968;52.342;5.528;2023-05-01T11:33:59;101555.19;;;19.79;38.45
43161;BME280;40968;52.342;5.528;2023-05-01T11:36:26;101554.25;;;19.70;39.76
43161;BME280;40968;52.342;5.528;2023-05-01T11:38:56;101557.63;;;19.64;39.60
43161;BME280;40968;52.342;5.528;2023-05-01T11:41:24;101476.09;;;19.10;38.61
43161;BME280;40968;52.342;5.528;2023-05-01T11:43:52;101274.94;;;17.75;37.70
43161;BME280;40968;52.342;5.528;2023-05-01T11:46:23;101561.41;;;19.53;38.64
43161;BME280;40968;52.342;5.528;2023-05-01T11:48:51;101521.81;;;19.14;40.67
43161;BME280;40968;52.342;5.528;2023-05-01T11:51:18;101552.25;;;19.36;41.11
43161;BME280;40968;52.342;5.528;2023-05-01T11:53:58;101478.66;;;18.83;41.14
43161;BME280;40968;52.342;5.528;2023-05-01T11:56:25;101559.41;;;19.37;40.43
43161;BME280;40968;52.342;5.528;2023-05-01T11:58:52;101467.50;;;18.86;39.45
43161;BME280;40968;52.342;5.528;2023-05-01T12:01:19;101561.84;;;19.12;39.10
43161;BME280;40968;52.342;5.528;2023-05-01T12:03:46;101558.75;;;19.07;39.12
43161;BME280;40968;52.342;5.528;2023-05-01T12:06:13;101540.56;;;18.80;38.68
43161;BME280;40968;52.342;5.528;2023-05-01T12:08:47;101518.91;;;18.42;38.51
43161;BME280;40968;52.342;5.528;2023-05-01T12:11:17;101565.44;;;18.47;38.49
43161;BME280;40968;52.342;5.528;2023-05-01T12:13:45;101534.31;;;18.04;38.78
43161;BME280;40968;52.342;5.528;2023-05-01T12:16:12;101565.56;;;18.08;38.27
43161;BME280;40968;52.342;5.528;2023-05-01T12:18:41;101533.72;;;17.71;38.46
43161;BME280;40968;52.342;5.528;2023-05-01T12:21:14;101520.63;;;17.47;38.49
43161;BME280;40968;52.342;5.528;2023-05-01T12:23:41;101521.50;;;17.37;39.14
43161;BME280;40968;52.342;5.528;2023-05-01T12:26:14;101569.13;;;17.60;38.93
43161;BME280;40968;52.342;5.528;2023-05-01T12:28:54;101569.25;;;17.48;40.24
43161;BME280;40968;52.342;5.528;2023-05-01T12:31:21;101440.53;;;16.54;40.99
43161;BME280;40968;52.342;5.528;2023-05-01T12:33:57;101542.41;;;17.16;41.12
43161;BME280;40968;52.342;5.528;2023-05-01T12:36:26;101578.66;;;17.24;41.67
43161;BME280;40968;52.342;5.528;2023-05-01T12:38:54;101315.97;;;15.65;41.88
43161;BME280;40968;52.342;5.528;2023-05-01T12:41:31;101576.47;;;17.18;42.22
43161;BME280;40968;52.342;5.528;2023-05-01T12:43:59;101580.47;;;17.14;42.46
43161;BME280;40968;52.342;5.528;2023-05-01T12:46:26;101581.31;;;17.05;42.53
43161;BME280;40968;52.342;5.528;2023-05-01T12:48:53;101530.16;;;16.71;43.30
43161;BME280;40968;52.342;5.528;2023-05-01T12:51:20;101539.09;;;16.62;43.71
43161;BME280;40968;52.342;5.528;2023-05-01T12:53:48;101579.91;;;16.80;44.95
43161;BME280;40968;52.342;5.528;2023-05-01T12:56:23;101568.59;;;16.65;46.03
43161;BME280;40968;52.342;5.528;2023-05-01T12:58:50;101510.69;;;16.36;45.75
43161;BME280;40968;52.342;5.528;2023-05-01T13:01:28;101534.81;;;16.59;45.45
43161;BME280;40968;52.342;5.528;2023-05-01T13:03:55;101580.72;;;16.92;45.28
43161;BME280;40968;52.342;5.528;2023-05-01T13:06:30;101549.94;;;16.71;45.68
43161;BME280;40968;52.342;5.528;2023-05-01T13:09:06;101546.72;;;16.78;45.91
43161;BME280;40968;52.342;5.528;2023-05-01T13:11:34;101364.53;;;15.76;46.05
43161;BME280;40968;52.342;5.528;2023-05-01T13:14:06;101550.63;;;16.95;45.51
43161;BME280;40968;52.342;5.528;2023-05-01T13:16:43;101556.50;;;17.00;45.09
43161;BME280;40968;52.342;5.528;2023-05-01T13:19:10;101561.94;;;17.10;44.95
43161;BME280;40968;52.342;5.528;2023-05-01T13:21:45;101542.22;;;16.98;46.36
43161;BME280;40968;52.342;5.528;2023-05-01T13:24:12;101520.72;;;16.96;46.21